sensor_id;sensor_type;location;lat;lon;timestamp;P1;durP1;ratioP1;P2;durP2;ratioP2
2854;SDS011;1435;49.472;10.940;2023-02-19T00:02:13;4.40;;;4.00;;
2854;SDS011;1435;49.472;10.940;2023-02-19T00:07:14;5.30;;;4.67;;
2854;SDS011;1435;49.472;10.940;2023-02-19T00:12:17;4.70;;;3.93;;
2854;SDS011;1435;49.472;10.940;2023-02-19T00:17:19;4.47;;;3.50;;
2854;SDS011;1435;49.472;10.940;2023-02-19T00:22:21;3.80;;;3.50;;
2854;SDS011;1435;49.472;10.940;2023-02-19T00:27:24;3.67;;;3.23;;
2854;SDS011;1435;49.472;10.940;2023-02-19T00:32:25;3.30;;;3.00;;
2854;SDS011;1435;49.472;10.940;2023-02-19T00:37:27;3.70;;;3.40;;
2854;SDS011;1435;49.472;10.940;2023-02-19T00:42:30;3.67;;;3.37;;
2854;SDS011;1435;49.472;10.940;2023-02-19T00:47:32;3.50;;;3.30;;
2854;SDS011;1435;49.472;10.940;2023-02-19T00:52:34;3.90;;;3.63;;
2854;SDS011;1435;49.472;10.940;2023-02-19T00:57:37;3.57;;;3.20;;
2854;SDS011;1435;49.472;10.940;2023-02-19T01:02:39;4.00;;;3.70;;
2854;SDS011;1435;49.472;10.940;2023-02-19T01:07:40;4.43;;;4.03;;
2854;SDS011;1435;49.472;10.940;2023-02-19T01:12:43;4.50;;;4.10;;
2854;SDS011;1435;49.472;10.940;2023-02-19T01:17:45;5.10;;;4.70;;
2854;SDS011;1435;49.472;10.940;2023-02-19T01:22:47;4.80;;;4.43;;
2854;SDS011;1435;49.472;10.940;2023-02-19T01:27:50;5.73;;;5.00;;
2854;SDS011;1435;49.472;10.940;2023-02-19T01:32:51;4.50;;;4.10;;
2854;SDS011;1435;49.472;10.940;2023-02-19T01:37:53;5.50;;;5.00;;
2854;SDS011;1435;49.472;10.940;2023-02-19T01:42:56;5.57;;;4.80;;
2854;SDS011;1435;49.472;10.940;2023-02-19T01:48:00;5.77;;;5.17;;
2854;SDS011;1435;49.472;10.940;2023-02-19T01:53:09;5.77;;;5.27;;
2854;SDS011;1435;49.472;10.940;2023-02-19T01:58:14;4.53;;;4.13;;
2854;SDS011;1435;49.472;10.940;2023-02-19T02:03:17;5.57;;;5.07;;
2854;SDS011;1435;49.472;10.940;2023-02-19T02:08:19;4.30;;;3.90;;
2854;SDS011;1435;49.472;10.940;2023-02-19T02:13:40;5.20;;;4.70;;
2854;SDS011;1435;49.472;10.940;2023-02-19T02:18:46;4.63;;;4.23;;
2854;SDS011;1435;49.472;10.940;2023-02-19T02:24:10;3.77;;;3.47;;
2854;SDS011;1435;49.472;10.940;2023-02-19T02:29:34;3.67;;;3.37;;
2854;SDS011;1435;49.472;10.940;2023-02-19T02:34:59;3.60;;;3.30;;
2854;SDS011;1435;49.472;10.940;2023-02-19T02:40:06;4.33;;;3.27;;
2854;SDS011;1435;49.472;10.940;2023-02-19T02:45:24;4.20;;;3.77;;
2854;SDS011;1435;49.472;10.940;2023-02-19T02:50:38;3.83;;;3.53;;
2854;SDS011;1435;49.472;10.940;2023-02-19T02:55:46;5.10;;;3.90;;
2854;SDS011;1435;49.472;10.940;2023-02-19T03:00:54;3.33;;;3.03;;
2854;SDS011;1435;49.472;10.940;2023-02-19T03:06:17;4.10;;;3.70;;
2854;SDS011;1435;49.472;10.940;2023-02-19T03:11:22;3.83;;;3.50;;
2854;SDS011;1435;49.472;10.940;2023-02-19T03:16:43;3.97;;;3.37;;
2854;SDS011;1435;49.472;10.940;2023-02-19T03:22:06;3.47;;;3.17;;
2854;SDS011;1435;49.472;10.940;2023-02-19T03:27:13;3.90;;;3.50;;
2854;SDS011;1435;49.472;10.940;2023-02-19T03:32:19;3.87;;;3.57;;
2854;SDS011;1435;49.472;10.940;2023-02-19T03:37:24;3.40;;;3.10;;
2854;SDS011;1435;49.472;10.940;2023-02-19T03:42:33;3.77;;;3.37;;
2854;SDS011;1435;49.472;10.940;2023-02-19T03:47:41;3.90;;;3.50;;
2854;SDS011;1435;49.472;10.940;2023-02-19T03:52:52;3.70;;;3.40;;
2854;SDS011;1435;49.472;10.940;2023-02-19T03:58:01;3.40;;;3.10;;
2854;SDS011;1435;49.472;10.940;2023-02-19T04:03:13;3.27;;;2.97;;
2854;SDS011;1435;49.472;10.940;2023-02-19T04:08:20;3.43;;;3.13;;
2854;SDS011;1435;49.472;10.940;2023-02-19T04:13:25;3.47;;;3.17;;
2854;SDS011;1435;49.472;10.940;2023-02-19T04:18:31;3.57;;;3.20;;
2854;SDS011;1435;49.472;10.940;2023-02-19T04:23:38;3.67;;;3.37;;
2854;SDS011;1435;49.472;10.940;2023-02-19T04:28:43;4.63;;;4.23;;
2854;SDS011;1435;49.472;10.940;2023-02-19T04:33:46;3.90;;;3.60;;
2854;SDS011;1435;49.472;10.940;2023-02-19T04:38:47;3.77;;;3.40;;
2854;SDS011;1435;49.472;10.940;2023-02-19T04:43:49;3.80;;;3.50;;
2854;SDS011;1435;49.472;10.940;2023-02-19T04:48:52;4.20;;;3.80;;
2854;SDS011;1435;49.472;10.940;2023-02-19T04:53:54;3.70;;;3.30;;
2854;SDS011;1435;49.472;10.940;2023-02-19T04:58:56;3.67;;;3.37;;
2854;SDS011;1435;49.472;10.940;2023-02-19T05:03:59;3.43;;;3.13;;
2854;SDS011;1435;49.472;10.940;2023-02-19T05:09:01;3.50;;;3.20;;
2854;SDS011;1435;49.472;10.940;2023-02-19T05:14:03;3.50;;;3.20;;
2854;SDS011;1435;49.472;10.940;2023-02-19T05:19:08;2.87;;;2.67;;
2854;SDS011;1435;49.472;10.940;2023-02-19T05:24:11;2.70;;;2.50;;
2854;SDS011;1435;49.472;10.940;2023-02-19T05:29:12;2.70;;;2.50;;
2854;SDS011;1435;49.472;10.940;2023-02-19T05:34:15;1.73;;;1.50;;
2854;SDS011;1435;49.472;10.940;2023-02-19T05:39:17;2.40;;;2.23;;
2854;SDS011;1435;49.472;10.940;2023-02-19T05:44:19;2.43;;;2.20;;
2854;SDS011;1435;49.472;10.940;2023-02-19T05:49:22;1.40;;;1.30;;
2854;SDS011;1435;49.472;10.940;2023-02-19T05:54:26;2.20;;;2.10;;
2854;SDS011;1435;49.472;10.940;2023-02-19T05:59:28;1.67;;;1.57;;
2854;SDS011;1435;49.472;10.940;2023-02-19T06:04:32;2.13;;;2.00;;
2854;SDS011;1435;49.472;10.940;2023-02-19T06:09:33;1.80;;;1.70;;
2854;SDS011;1435;49.472;10.940;2023-02-19T06:14:35;2.20;;;2.00;;
2854;SDS011;1435;49.472;10.940;2023-02-19T06:19:38;2.40;;;1.87;;
2854;SDS011;1435;49.472;10.940;2023-02-19T06:24:40;2.07;;;1.87;;
2854;SDS011;1435;49.472;10.940;2023-02-19T06:29:42;2.23;;;2.10;;
2854;SDS011;1435;49.472;10.940;2023-02-19T06:34:45;2.00;;;1.90;;
2854;SDS011;1435;49.472;10.940;2023-02-19T06:39:46;2.13;;;1.93;;
2854;SDS011;1435;49.472;10.940;2023-02-19T06:44:50;2.20;;;2.00;;
2854;SDS011;1435;49.472;10.940;2023-02-19T06:49:53;2.27;;;1.73;;
2854;SDS011;1435;49.472;10.940;2023-02-19T06:54:54;2.27;;;2.03;;
2854;SDS011;1435;49.472;10.940;2023-02-19T06:59:56;1.87;;;1.77;;
2854;SDS011;1435;49.472;10.940;2023-02-19T07:04:59;2.47;;;1.73;;
2854;SDS011;1435;49.472;10.940;2023-02-19T07:10:01;1.87;;;1.70;;
2854;SDS011;1435;49.472;10.940;2023-02-19T07:15:03;1.80;;;1.70;;
2854;SDS011;1435;49.472;10.940;2023-02-19T07:20:06;1.73;;;1.50;;
2854;SDS011;1435;49.472;10.940;2023-02-19T07:25:08;1.90;;;1.80;;
2854;SDS011;1435;49.472;10.940;2023-02-19T07:30:10;1.70;;;1.60;;
2854;SDS011;1435;49.472;10.940;2023-02-19T07:35:14;1.80;;;1.70;;
2854;SDS011;1435;49.472;10.940;2023-02-19T07:40:15;1.73;;;1.63;;
2854;SDS011;1435;49.472;10.940;2023-02-19T07:45:17;2.13;;;2.03;;
2854;SDS011;1435;49.472;10.940;2023-02-19T07:50:20;2.37;;;2.10;;
2854;SDS011;1435;49.472;10.940;2023-02-19T07:55:22;1.80;;;1.70;;
2854;SDS011;1435;49.472;10.940;2023-02-19T08:00:24;2.10;;;1.97;;
2854;SDS011;1435;49.472;10.940;2023-02-19T08:05:27;2.53;;;2.10;;
2854;SDS011;1435;49.472;10.940;2023-02-19T08:10:30;3.33;;;1.73;;
2854;SDS011;1435;49.472;10.940;2023-02-19T08:15:50;2.13;;;1.80;;
2854;SDS011;1435;49.472;10.940;2023-02-19T08:20:54;2.87;;;1.20;;
2854;SDS011;1435;49.472;10.940;2023-02-19T08:25:57;2.10;;;1.33;;
2854;SDS011;1435;49.472;10.940;2023-02-19T08:31:00;2.23;;;1.57;;
2854;SDS011;1435;49.472;10.940;2023-02-19T08:36:06;1.63;;;1.53;;
2854;SDS011;1435;49.472;10.940;2023-02-19T08:41:10;0.97;;;0.83;;
2854;SDS011;1435;49.472;10.940;2023-02-19T08:46:13;1.00;;;0.90;;
2854;SDS011;1435;49.472;10.940;2023-02-19T08:51:16;1.10;;;1.00;;
2854;SDS011;1435;49.472;10.940;2023-02-19T08:56:18;1.30;;;1.20;;
2854;SDS011;1435;49.472;10.940;2023-02-19T09:01:19;1.40;;;1.30;;
2854;SDS011;1435;49.472;10.940;2023-02-19T09:06:24;1.73;;;1.50;;
2854;SDS011;1435;49.472;10.940;2023-02-19T09:11:25;1.30;;;1.20;;
2854;SDS011;1435;49.472;10.940;2023-02-19T09:16:27;1.63;;;1.10;;
2854;SDS011;1435;49.472;10.940;2023-02-19T09:21:31;1.80;;;1.70;;
2854;SDS011;1435;49.472;10.940;2023-02-19T09:26:33;1.80;;;1.70;;
2854;SDS011;1435;49.472;10.940;2023-02-19T09:31:35;2.40;;;1.90;;
2854;SDS011;1435;49.472;10.940;2023-02-19T09:36:38;1.73;;;1.63;;
2854;SDS011;1435;49.472;10.940;2023-02-19T09:41:41;2.33;;;1.67;;
2854;SDS011;1435;49.472;10.940;2023-02-19T09:46:45;1.47;;;1.37;;
2854;SDS011;1435;49.472;10.940;2023-02-19T09:51:51;1.90;;;1.70;;
2854;SDS011;1435;49.472;10.940;2023-02-19T09:56:56;2.17;;;1.97;;
2854;SDS011;1435;49.472;10.940;2023-02-19T10:02:02;2.93;;;2.50;;
2854;SDS011;1435;49.472;10.940;2023-02-19T10:07:07;2.10;;;2.00;;
2854;SDS011;1435;49.472;10.940;2023-02-19T10:12:13;4.03;;;2.27;;
2854;SDS011;1435;49.472;10.940;2023-02-19T10:17:19;4.30;;;1.93;;
2854;SDS011;1435;49.472;10.940;2023-02-19T10:22:25;3.03;;;1.70;;
2854;SDS011;1435;49.472;10.940;2023-02-19T10:27:28;4.20;;;2.50;;
2854;SDS011;1435;49.472;10.940;2023-02-19T10:32:30;2.70;;;1.93;;
2854;SDS011;1435;49.472;10.940;2023-02-19T10:37:34;2.77;;;2.10;;
2854;SDS011;1435;49.472;10.940;2023-02-19T10:42:43;2.17;;;1.47;;
2854;SDS011;1435;49.472;10.940;2023-02-19T10:47:47;2.07;;;1.87;;
2854;SDS011;1435;49.472;10.940;2023-02-19T10:52:51;2.80;;;2.60;;
2854;SDS011;1435;49.472;10.940;2023-02-19T10:57:55;2.13;;;1.93;;
2854;SDS011;1435;49.472;10.940;2023-02-19T11:03:11;4.43;;;2.27;;
2854;SDS011;1435;49.472;10.940;2023-02-19T11:08:21;2.23;;;2.03;;
2854;SDS011;1435;49.472;10.940;2023-02-19T11:13:25;3.80;;;2.43;;
2854;SDS011;1435;49.472;10.940;2023-02-19T11:18:31;2.77;;;2.50;;
2854;SDS011;1435;49.472;10.940;2023-02-19T11:23:36;4.13;;;2.63;;
2854;SDS011;1435;49.472;10.940;2023-02-19T11:28:45;2.57;;;2.23;;
2854;SDS011;1435;49.472;10.940;2023-02-19T11:33:56;3.23;;;2.83;;
2854;SDS011;1435;49.472;10.940;2023-02-19T11:44:24;2.77;;;2.57;;
2854;SDS011;1435;49.472;10.940;2023-02-19T11:49:38;3.30;;;2.37;;
2854;SDS011;1435;49.472;10.940;2023-02-19T11:54:51;3.03;;;2.83;;
2854;SDS011;1435;49.472;10.940;2023-02-19T11:59:59;3.10;;;2.80;;
2854;SDS011;1435;49.472;10.940;2023-02-19T12:05:20;3.83;;;3.03;;
2854;SDS011;1435;49.472;10.940;2023-02-19T12:10:46;3.13;;;2.70;;
2854;SDS011;1435;49.472;10.940;2023-02-19T12:16:10;3.60;;;2.90;;
2854;SDS011;1435;49.472;10.940;2023-02-19T12:21:26;2.57;;;2.33;;
2854;SDS011;1435;49.472;10.940;2023-02-19T12:26:41;2.57;;;2.37;;
2854;SDS011;1435;49.472;10.940;2023-02-19T12:31:59;7.60;;;3.10;;
2854;SDS011;1435;49.472;10.940;2023-02-19T12:37:21;3.40;;;2.93;;
2854;SDS011;1435;49.472;10.940;2023-02-19T12:42:39;3.40;;;2.57;;
2854;SDS011;1435;49.472;10.940;2023-02-19T12:47:54;2.53;;;2.33;;
2854;SDS011;1435;49.472;10.940;2023-02-19T12:53:01;5.30;;;2.67;;
2854;SDS011;1435;49.472;10.940;2023-02-19T12:58:12;4.63;;;2.67;;
2854;SDS011;1435;49.472;10.940;2023-02-19T13:03:20;3.33;;;3.03;;
2854;SDS011;1435;49.472;10.940;2023-02-19T13:08:29;4.37;;;2.80;;
2854;SDS011;1435;49.472;10.940;2023-02-19T13:13:38;3.70;;;2.30;;
2854;SDS011;1435;49.472;10.940;2023-02-19T13:23:47;2.63;;;2.13;;
2854;SDS011;1435;49.472;10.940;2023-02-19T13:29:07;2.17;;;2.00;;
2854;SDS011;1435;49.472;10.940;2023-02-19T13:34:19;1.83;;;1.73;;
2854;SDS011;1435;49.472;10.940;2023-02-19T13:39:34;2.03;;;1.43;;
2854;SDS011;1435;49.472;10.940;2023-02-19T13:44:38;3.30;;;2.47;;
2854;SDS011;1435;49.472;10.940;2023-02-19T13:49:41;2.90;;;2.70;;
2854;SDS011;1435;49.472;10.940;2023-02-19T13:54:48;2.53;;;2.33;;
2854;SDS011;1435;49.472;10.940;2023-02-19T13:59:51;2.07;;;1.97;;
2854;SDS011;1435;49.472;10.940;2023-02-19T14:04:54;2.03;;;1.90;;
2854;SDS011;1435;49.472;10.940;2023-02-19T14:09:59;3.50;;;1.90;;
2854;SDS011;1435;49.472;10.940;2023-02-19T14:20:46;3.90;;;2.10;;
2854;SDS011;1435;49.472;10.940;2023-02-19T14:25:50;2.27;;;2.07;;
2854;SDS011;1435;49.472;10.940;2023-02-19T14:30:55;3.00;;;1.80;;
2854;SDS011;1435;49.472;10.940;2023-02-19T14:36:02;3.00;;;2.80;;
2854;SDS011;1435;49.472;10.940;2023-02-19T14:41:06;2.83;;;1.70;;
2854;SDS011;1435;49.472;10.940;2023-02-19T14:46:14;2.63;;;2.03;;
2854;SDS011;1435;49.472;10.940;2023-02-19T14:51:24;6.53;;;2.20;;
2854;SDS011;1435;49.472;10.940;2023-02-19T14:56:32;2.90;;;2.30;;
2854;SDS011;1435;49.472;10.940;2023-02-19T15:01:34;4.40;;;2.50;;
2854;SDS011;1435;49.472;10.940;2023-02-19T15:06:38;4.90;;;3.20;;
2854;SDS011;1435;49.472;10.940;2023-02-19T15:11:40;3.37;;;1.87;;
2854;SDS011;1435;49.472;10.940;2023-02-19T15:16:44;4.00;;;2.07;;
2854;SDS011;1435;49.472;10.940;2023-02-19T15:21:48;2.80;;;2.30;;
2854;SDS011;1435;49.472;10.940;2023-02-19T15:26:51;2.67;;;1.70;;
2854;SDS011;1435;49.472;10.940;2023-02-19T15:31:55;5.27;;;2.23;;
2854;SDS011;1435;49.472;10.940;2023-02-19T15:37:00;1.80;;;1.50;;
2854;SDS011;1435;49.472;10.940;2023-02-19T15:42:04;3.20;;;2.30;;
2854;SDS011;1435;49.472;10.940;2023-02-19T15:47:11;5.60;;;1.97;;
2854;SDS011;1435;49.472;10.940;2023-02-19T15:52:23;2.10;;;1.90;;
2854;SDS011;1435;49.472;10.940;2023-02-19T15:57:32;2.90;;;2.20;;
2854;SDS011;1435;49.472;10.940;2023-02-19T16:02:38;3.03;;;2.10;;
2854;SDS011;1435;49.472;10.940;2023-02-19T16:07:41;2.67;;;2.30;;
2854;SDS011;1435;49.472;10.940;2023-02-19T16:12:52;2.50;;;2.03;;
2854;SDS011;1435;49.472;10.940;2023-02-19T16:17:55;2.10;;;1.90;;
2854;SDS011;1435;49.472;10.940;2023-02-19T16:23:00;1.80;;;1.70;;
2854;SDS011;1435;49.472;10.940;2023-02-19T16:28:11;3.60;;;2.03;;
2854;SDS011;1435;49.472;10.940;2023-02-19T16:33:18;2.00;;;1.77;;
2854;SDS011;1435;49.472;10.940;2023-02-19T16:38:40;3.67;;;2.27;;
2854;SDS011;1435;49.472;10.940;2023-02-19T16:43:59;2.97;;;2.27;;
2854;SDS011;1435;49.472;10.940;2023-02-19T16:49:07;2.73;;;2.53;;
2854;SDS011;1435;49.472;10.940;2023-02-19T16:54:10;2.60;;;2.10;;
2854;SDS011;1435;49.472;10.940;2023-02-19T16:59:12;2.43;;;2.23;;
2854;SDS011;1435;49.472;10.940;2023-02-19T17:04:14;3.70;;;2.23;;
2854;SDS011;1435;49.472;10.940;2023-02-19T17:09:17;3.27;;;2.60;;
2854;SDS011;1435;49.472;10.940;2023-02-19T17:14:19;6.23;;;2.70;;
2854;SDS011;1435;49.472;10.940;2023-02-19T17:19:21;2.87;;;2.60;;
2854;SDS011;1435;49.472;10.940;2023-02-19T17:24:24;3.90;;;2.40;;
2854;SDS011;1435;49.472;10.940;2023-02-19T17:29:26;3.40;;;2.87;;
2854;SDS011;1435;49.472;10.940;2023-02-19T17:34:31;4.00;;;2.67;;
2854;SDS011;1435;49.472;10.940;2023-02-19T17:39:35;3.00;;;2.80;;
2854;SDS011;1435;49.472;10.940;2023-02-19T17:44:36;3.27;;;2.97;;
2854;SDS011;1435;49.472;10.940;2023-02-19T17:49:38;3.00;;;2.73;;
2854;SDS011;1435;49.472;10.940;2023-02-19T17:54:42;3.17;;;2.77;;
2854;SDS011;1435;49.472;10.940;2023-02-19T17:59:43;5.87;;;3.17;;
2854;SDS011;1435;49.472;10.940;2023-02-19T18:04:45;3.07;;;2.70;;
2854;SDS011;1435;49.472;10.940;2023-02-19T18:09:48;5.13;;;3.40;;
2854;SDS011;1435;49.472;10.940;2023-02-19T18:14:50;3.10;;;2.80;;
2854;SDS011;1435;49.472;10.940;2023-02-19T18:19:53;4.00;;;3.07;;
2854;SDS011;1435;49.472;10.940;2023-02-19T18:24:56;5.27;;;3.20;;
2854;SDS011;1435;49.472;10.940;2023-02-19T18:29:58;3.33;;;3.03;;
2854;SDS011;1435;49.472;10.940;2023-02-19T18:35:00;4.10;;;2.80;;
2854;SDS011;1435;49.472;10.940;2023-02-19T18:40:05;6.80;;;2.93;;
2854;SDS011;1435;49.472;10.940;2023-02-19T18:45:08;2.90;;;1.63;;
2854;SDS011;1435;49.472;10.940;2023-02-19T18:50:10;2.93;;;2.07;;
2854;SDS011;1435;49.472;10.940;2023-02-19T18:55:14;2.00;;;1.90;;
2854;SDS011;1435;49.472;10.940;2023-02-19T19:00:16;2.50;;;1.80;;
2854;SDS011;1435;49.472;10.940;2023-02-19T19:05:20;3.27;;;1.93;;
2854;SDS011;1435;49.472;10.940;2023-02-19T19:10:24;2.70;;;2.27;;
2854;SDS011;1435;49.472;10.940;2023-02-19T19:15:26;2.43;;;2.00;;
2854;SDS011;1435;49.472;10.940;2023-02-19T19:20:28;2.57;;;2.10;;
2854;SDS011;1435;49.472;10.940;2023-02-19T19:25:31;3.30;;;1.90;;
2854;SDS011;1435;49.472;10.940;2023-02-19T19:30:33;6.93;;;2.37;;
2854;SDS011;1435;49.472;10.940;2023-02-19T19:35:35;2.53;;;2.33;;
2854;SDS011;1435;49.472;10.940;2023-02-19T19:40:38;1.60;;;1.50;;
2854;SDS011;1435;49.472;10.940;2023-02-19T19:45:41;3.07;;;1.53;;
2854;SDS011;1435;49.472;10.940;2023-02-19T19:50:43;3.43;;;1.90;;
2854;SDS011;1435;49.472;10.940;2023-02-19T19:55:46;2.60;;;2.10;;
2854;SDS011;1435;49.472;10.940;2023-02-19T20:00:47;1.73;;;1.63;;
2854;SDS011;1435;49.472;10.940;2023-02-19T20:05:49;3.80;;;1.43;;
2854;SDS011;1435;49.472;10.940;2023-02-19T20:10:52;1.70;;;1.60;;
2854;SDS011;1435;49.472;10.940;2023-02-19T20:15:54;4.30;;;1.43;;
2854;SDS011;1435;49.472;10.940;2023-02-19T20:20:56;1.90;;;1.57;;
2854;SDS011;1435;49.472;10.940;2023-02-19T20:26:00;4.23;;;2.40;;
2854;SDS011;1435;49.472;10.940;2023-02-19T20:31:04;3.90;;;2.57;;
2854;SDS011;1435;49.472;10.940;2023-02-19T20:36:08;3.43;;;1.73;;
2854;SDS011;1435;49.472;10.940;2023-02-19T20:41:12;5.70;;;2.03;;
2854;SDS011;1435;49.472;10.940;2023-02-19T20:46:14;2.83;;;2.53;;
2854;SDS011;1435;49.472;10.940;2023-02-19T20:51:15;2.20;;;1.20;;
2854;SDS011;1435;49.472;10.940;2023-02-19T20:56:19;2.33;;;2.13;;
2854;SDS011;1435;49.472;10.940;2023-02-19T21:01:24;1.97;;;1.57;;
2854;SDS011;1435;49.472;10.940;2023-02-19T21:06:26;2.13;;;1.93;;
2854;SDS011;1435;49.472;10.940;2023-02-19T21:11:29;1.87;;;1.77;;
2854;SDS011;1435;49.472;10.940;2023-02-19T21:16:32;2.23;;;1.90;;
2854;SDS011;1435;49.472;10.940;2023-02-19T21:21:35;3.20;;;1.80;;
2854;SDS011;1435;49.472;10.940;2023-02-19T21:26:40;4.50;;;2.33;;
2854;SDS011;1435;49.472;10.940;2023-02-19T21:31:43;3.87;;;2.07;;
2854;SDS011;1435;49.472;10.940;2023-02-19T21:36:46;2.43;;;2.07;;
2854;SDS011;1435;49.472;10.940;2023-02-19T21:41:50;2.80;;;2.37;;
2854;SDS011;1435;49.472;10.940;2023-02-19T21:46:52;2.40;;;2.20;;
2854;SDS011;1435;49.472;10.940;2023-02-19T21:51:54;2.33;;;2.13;;
2854;SDS011;1435;49.472;10.940;2023-02-19T21:56:59;2.20;;;2.00;;
2854;SDS011;1435;49.472;10.940;2023-02-19T22:02:02;4.23;;;2.77;;
2854;SDS011;1435;49.472;10.940;2023-02-19T22:07:04;3.63;;;2.90;;
2854;SDS011;1435;49.472;10.940;2023-02-19T22:12:07;2.80;;;2.60;;
2854;SDS011;1435;49.472;10.940;2023-02-19T22:17:08;6.00;;;3.03;;
2854;SDS011;1435;49.472;10.940;2023-02-19T22:22:10;2.43;;;2.23;;
2854;SDS011;1435;49.472;10.940;2023-02-19T22:27:13;5.00;;;3.13;;
2854;SDS011;1435;49.472;10.940;2023-02-19T22:32:15;5.03;;;3.57;;
2854;SDS011;1435;49.472;10.940;2023-02-19T22:37:17;5.90;;;3.80;;
2854;SDS011;1435;49.472;10.940;2023-02-19T22:42:20;5.10;;;4.03;;
2854;SDS011;1435;49.472;10.940;2023-02-19T22:47:23;4.33;;;3.93;;
2854;SDS011;1435;49.472;10.940;2023-02-19T22:52:25;5.63;;;3.90;;
2854;SDS011;1435;49.472;10.940;2023-02-19T22:57:28;8.10;;;4.30;;
2854;SDS011;1435;49.472;10.940;2023-02-19T23:02:30;5.27;;;3.97;;
2854;SDS011;1435;49.472;10.940;2023-02-19T23:07:31;5.00;;;4.50;;
2854;SDS011;1435;49.472;10.940;2023-02-19T23:12:36;8.53;;;5.93;;
2854;SDS011;1435;49.472;10.940;2023-02-19T23:17:38;5.50;;;4.53;;
2854;SDS011;1435;49.472;10.940;2023-02-19T23:22:40;5.60;;;4.93;;
2854;SDS011;1435;49.472;10.940;2023-02-19T23:27:43;6.17;;;5.47;;
2854;SDS011;1435;49.472;10.940;2023-02-19T23:32:45;6.00;;;4.60;;
2854;SDS011;1435;49.472;10.940;2023-02-19T23:37:47;9.57;;;4.97;;
2854;SDS011;1435;49.472;10.940;2023-02-19T23:42:50;10.90;;;6.03;;
2854;SDS011;1435;49.472;10.940;2023-02-19T23:47:53;7.70;;;5.20;;
2854;SDS011;1435;49.472;10.940;2023-02-19T23:52:55;7.27;;;5.70;;
2854;SDS011;1435;49.472;10.940;2023-02-19T23:57:59;6.93;;;6.33;;
